Time;durP1;ratioP1;P1;durP2;ratioP2;P2;SDS_P1;SDS_P2;PMS_P1;PMS_P2;Temp;Humidity;BMP_temperature;BMP_pressure;BME280_temperature;BME280_humidity;BME280_pressure;Samples;Min_cycle;Max_cycle;Signal;HPM_P1;HPM_P2
2021/08/08 00:00:49;;;;;;;1.40;0.82;;;;;;;16.60;81.40;99163.53;10476802;28;20089;-69
2021/08/08 00:05:52;;;;;;;1.85;0.88;;;;;;;16.61;81.06;99157.31;10477627;28;20154;-69
2021/08/08 00:10:53;;;;;;;1.15;0.70;;;;;;;16.52;81.57;99161.44;10477324;28;20055;-69
2021/08/08 00:15:55;;;;;;;1.30;0.80;;;;;;;16.55;80.75;99155.91;10495391;28;20572;-70
2021/08/08 00:20:57;;;;;;;1.52;0.90;;;;;;;16.41;82.43;99158.69;10476968;28;20072;-70
2021/08/08 00:25:59;;;;;;;0.90;0.73;;;;;;;16.49;81.37;99161.66;10477806;28;20070;-70
2021/08/08 00:31:00;;;;;;;1.00;0.90;;;;;;;16.46;80.50;99167.16;10476540;28;20052;-70
2021/08/08 00:36:02;;;;;;;0.90;0.70;;;;;;;16.43;80.59;99169.22;10494140;28;20358;-70
2021/08/08 00:41:04;;;;;;;1.48;0.73;;;;;;;16.47;79.81;99155.63;10493974;28;20041;-70
2021/08/08 00:46:07;;;;;;;0.85;0.65;;;;;;;16.39;79.65;99158.81;10494294;28;20037;-70
2021/08/08 00:51:09;;;;;;;1.73;0.80;;;;;;;16.38;80.56;99175.69;10476302;28;20065;-70
2021/08/08 00:56:19;;;;;;;0.82;0.80;;;;;;;16.32;80.88;99165.47;10460219;28;20482;-69
2021/08/08 01:01:27;;;;;;;1.30;0.93;;;;;;;16.37;80.23;99166.00;10493404;28;20036;-69
2021/08/08 01:06:41;;;;;;;1.73;0.90;;;;;;;16.40;79.73;99167.59;10461370;28;20117;-70
2021/08/08 01:11:46;;;;;;;1.40;1.10;;;;;;;16.32;79.95;99160.16;10457504;28;20450;-70
2021/08/08 01:16:49;;;;;;;2.58;0.90;;;;;;;16.26;80.29;99157.94;10474298;28;20067;-70
2021/08/08 01:21:55;;;;;;;0.93;0.80;;;;;;;16.36;79.92;99163.47;10476735;28;20470;-70
2021/08/08 01:26:57;;;;;;;2.20;0.82;;;;;;;16.25;80.11;99166.03;10459572;28;20301;-70
2021/08/08 01:31:59;;;;;;;0.95;0.80;;;;;;;16.23;80.23;99170.56;10461564;28;20062;-70
2021/08/08 01:37:08;;;;;;;2.50;0.95;;;;;;;16.20;80.67;99166.31;10477886;28;20101;-70
2021/08/08 01:42:15;;;;;;;3.83;0.85;;;;;;;16.16;80.94;99154.25;10477127;28;20048;-70
2021/08/08 01:47:34;;;;;;;2.05;0.82;;;;;;;16.08;81.63;99162.72;10460381;28;20085;-70
2021/08/08 01:52:44;;;;;;;1.17;1.00;;;;;;;16.06;81.16;99151.34;10477935;28;20518;-70
2021/08/08 01:57:52;;;;;;;2.08;0.88;;;;;;;16.09;80.39;99159.09;10477364;28;20044;-70
2021/08/08 02:02:59;;;;;;;0.98;0.90;;;;;;;15.85;82.25;99166.09;10459835;28;20048;-70
2021/08/08 02:08:16;;;;;;;2.28;1.15;;;;;;;15.71;83.20;99185.53;10473038;28;20052;-70
2021/08/08 02:13:26;;;;;;;2.03;0.85;;;;;;;15.84;81.89;99194.34;10472438;28;20051;-70
2021/08/08 02:18:30;;;;;;;2.38;1.30;;;;;;;15.62;83.63;99202.00;10456189;28;20615;-70
2021/08/08 02:23:32;;;;;;;2.65;1.08;;;;;;;15.45;84.36;99191.66;10455795;28;20044;-70
2021/08/08 02:28:36;;;;;;;2.30;1.10;;;;;;;15.55;84.08;99206.88;10472154;28;20150;-70
2021/08/08 02:33:39;;;;;;;1.38;0.90;;;;;;;15.57;83.55;99212.91;10472684;28;20448;-70
2021/08/08 02:38:41;;;;;;;1.48;0.95;;;;;;;15.68;83.01;99212.25;10473042;28;20067;-70
2021/08/08 02:43:43;;;;;;;1.52;1.23;;;;;;;15.43;84.51;99226.19;10455370;28;20045;-70
2021/08/08 02:48:45;;;;;;;2.08;0.90;;;;;;;15.45;84.17;99219.03;10472309;28;20059;-69
2021/08/08 02:53:49;;;;;;;1.25;1.15;;;;;;;15.28;85.48;99219.25;10472246;28;20053;-71
2021/08/08 02:58:51;;;;;;;3.47;1.08;;;;;;;15.26;85.28;99211.38;10472483;28;20040;-70
2021/08/08 03:03:52;;;;;;;2.67;1.10;;;;;;;15.30;85.85;99234.06;10471915;28;20052;-71
2021/08/08 03:08:54;;;;;;;2.70;1.70;;;;;;;15.20;86.43;99234.78;10484346;22;20044;-71
2021/08/08 03:13:58;;;;;;;2.63;1.20;;;;;;;15.06;86.99;99252.38;10473764;28;20076;-70
2021/08/08 03:19:00;;;;;;;3.30;1.20;;;;;;;15.02;88.42;99260.59;10473066;28;20060;-71
2021/08/08 03:24:03;;;;;;;2.15;1.10;;;;;;;14.95;88.97;99270.69;10472705;28;20048;-71
2021/08/08 03:29:06;;;;;;;2.25;1.20;;;;;;;14.96;88.61;99274.19;10473007;28;20445;-71
2021/08/08 03:34:08;;;;;;;3.80;1.35;;;;;;;14.97;88.43;99287.34;10478193;28;20076;-70
2021/08/08 03:39:09;;;;;;;4.60;1.95;;;;;;;14.89;88.36;99301.03;10498730;28;20097;-71
2021/08/08 03:44:11;;;;;;;1.60;1.17;;;;;;;14.83;89.04;99306.72;10480630;28;20072;-71
2021/08/08 03:49:14;;;;;;;2.97;1.38;;;;;;;14.99;87.92;99309.28;10479962;28;20063;-70
2021/08/08 03:54:17;;;;;;;2.38;1.10;;;;;;;14.91;87.54;99319.47;10480587;28;20115;-70
2021/08/08 03:59:20;;;;;;;2.80;1.17;;;;;;;15.12;84.84;99325.25;10479590;28;20044;-71
2021/08/08 04:04:21;;;;;;;0.90;0.63;;;;;;;15.50;81.09;99314.91;10482141;28;20493;-71
2021/08/08 04:09:24;;;;;;;1.85;0.70;;;;;;;15.85;79.38;99327.75;10480194;28;20493;-70
2021/08/08 04:14:35;;;;;;;0.82;0.70;;;;;;;15.93;78.88;99335.19;10479943;28;20048;-70
2021/08/08 04:19:38;;;;;;;0.90;0.65;;;;;;;15.88;78.44;99331.03;10478421;28;20344;-70
2021/08/08 04:24:39;;;;;;;0.77;0.77;;;;;;;16.23;75.85;99340.28;10496353;28;20123;-70
2021/08/08 04:29:42;;;;;;;1.95;0.80;;;;;;;16.30;75.20;99349.53;10478879;28;20489;-70
2021/08/08 04:34:43;;;;;;;1.58;0.60;;;;;;;16.44;74.30;99377.81;10496473;28;20060;-71
2021/08/08 04:39:49;;;;;;;1.15;0.60;;;;;;;16.31;75.03;99373.28;10478807;28;20094;-70
2021/08/08 04:44:52;;;;;;;0.75;0.65;;;;;;;16.40;74.04;99363.88;10476487;28;20055;-69
2021/08/08 04:49:54;;;;;;;2.55;0.80;;;;;;;16.39;73.97;99357.72;10477998;28;20076;-69
2021/08/08 04:54:56;;;;;;;0.52;0.52;;;;;;;16.46;74.04;99352.84;10477450;28;20131;-70
2021/08/08 04:59:57;;;;;;;2.40;0.75;;;;;;;16.28;77.11;99365.53;10460891;28;20049;-70
2021/08/08 05:04:59;;;;;;;0.63;0.50;;;;;;;15.98;78.00;99380.78;10495035;28;20033;-70
2021/08/08 05:10:01;;;;;;;1.65;0.65;;;;;;;16.11;76.46;99379.91;10476881;28;20207;-70
2021/08/08 05:15:05;;;;;;;0.75;0.55;;;;;;;16.27;75.06;99386.84;10476660;28;20106;-70
2021/08/08 05:20:08;;;;;;;2.70;0.70;;;;;;;16.08;76.65;99397.81;10476660;28;20044;-70
2021/08/08 05:25:10;;;;;;;2.10;0.65;;;;;;;16.47;74.30;99398.78;10476259;28;20037;-70
2021/08/08 05:30:12;;;;;;;1.00;0.50;;;;;;;16.56;73.97;99401.72;10476282;28;20177;-70
2021/08/08 05:35:14;;;;;;;4.68;0.80;;;;;;;16.89;72.42;99397.78;10476148;28;20508;-70
2021/08/08 05:40:17;;;;;;;2.25;0.68;;;;;;;17.13;71.98;99404.06;10475868;28;20079;-70
2021/08/08 05:45:22;;;;;;;1.77;0.50;;;;;;;17.30;70.68;99402.03;10476916;28;20423;-70
2021/08/08 05:50:25;;;;;;;2.45;0.52;;;;;;;17.48;70.69;99397.25;10475659;28;20075;-69
2021/08/08 05:55:28;;;;;;;1.73;0.60;;;;;;;17.36;71.94;99407.78;10474479;28;20064;-70
2021/08/08 06:00:30;;;;;;;0.70;0.40;;;;;;;17.77;71.31;99409.34;10475587;28;20390;-70
2021/08/08 06:05:36;;;;;;;1.48;0.50;;;;;;;18.34;68.93;99410.56;10475751;28;20054;-70
2021/08/08 06:10:38;;;;;;;1.65;0.40;;;;;;;19.11;64.89;99419.81;10493382;28;20056;-70
2021/08/08 06:15:44;;;;;;;0.95;0.50;;;;;;;19.19;64.45;99416.56;10459668;28;20040;-71
2021/08/08 06:20:47;;;;;;;1.15;0.57;;;;;;;19.66;62.62;99414.72;10475730;28;20185;-70
2021/08/08 06:25:55;;;;;;;1.17;0.40;;;;;;;20.01;59.90;99419.03;10476024;28;20060;-70
2021/08/08 06:30:56;;;;;;;4.05;0.50;;;;;;;20.19;59.11;99416.69;10493048;28;20112;-70
2021/08/08 06:35:58;;;;;;;2.33;0.43;;;;;;;20.27;58.46;99415.09;10492012;28;20028;-70
2021/08/08 06:41:00;;;;;;;1.55;0.50;;;;;;;20.42;57.94;99419.19;10491623;28;20049;-71
2021/08/08 06:46:03;;;;;;;2.30;0.50;;;;;;;20.50;57.64;99423.94;10475120;28;20110;-72
2021/08/08 06:51:05;;;;;;;1.95;0.45;;;;;;;20.77;58.02;99434.16;10474343;28;20436;-70
2021/08/08 06:56:07;;;;;;;2.13;0.40;;;;;;;21.02;57.73;99438.25;10474256;28;20461;-71
2021/08/08 07:01:09;;;;;;;1.92;0.57;;;;;;;21.19;57.00;99452.03;10472930;28;20052;-72
2021/08/08 07:06:11;;;;;;;1.88;0.50;;;;;;;20.97;56.00;99463.69;10491426;28;20036;-71
2021/08/08 07:11:14;;;;;;;3.92;0.35;;;;;;;20.80;58.23;99465.09;10481861;28;20549;-70
2021/08/08 07:16:15;;;;;;;3.30;0.52;;;;;;;21.00;56.04;99460.75;10500270;28;20057;-70
2021/08/08 07:21:17;;;;;;;0.98;0.40;;;;;;;21.00;54.97;99476.78;10499853;28;20054;-72
2021/08/08 07:26:33;;;;;;;2.55;0.50;;;;;;;20.70;57.46;99481.03;10481762;28;20060;-72
2021/08/08 07:31:35;;;;;;;0.90;0.50;;;;;;;20.73;56.68;99483.47;10481814;28;20139;-71
2021/08/08 07:36:38;;;;;;;1.00;0.40;;;;;;;20.93;55.99;99471.09;10480169;28;20044;-72
2021/08/08 07:41:40;;;;;;;0.88;0.40;;;;;;;20.92;53.14;99480.94;10480277;28;20155;-72
2021/08/08 07:46:41;;;;;;;0.93;0.50;;;;;;;20.88;55.02;99467.97;10480692;28;20033;-72
2021/08/08 07:51:43;;;;;;;0.70;0.30;;;;;;;21.04;55.20;99471.06;10481064;28;20048;-71
2021/08/08 07:56:47;;;;;;;1.45;0.30;;;;;;;21.42;53.57;99475.00;10481221;28;20092;-71
2021/08/08 08:01:49;;;;;;;0.98;0.30;;;;;;;21.34;53.73;99472.16;10480313;28;20486;-71
2021/08/08 08:06:52;;;;;;;1.70;0.32;;;;;;;21.23;54.15;99480.19;10462644;28;20140;-70
2021/08/08 08:11:54;;;;;;;0.20;0.20;;;;;;;21.42;52.92;99486.53;10479813;28;20094;-74
2021/08/08 08:16:56;;;;;;;1.05;0.20;;;;;;;21.59;51.37;99485.09;10480310;28;20135;-72
2021/08/08 08:21:58;;;;;;;0.65;0.50;;;;;;;21.75;50.99;99494.47;10480074;28;20044;-71
2021/08/08 08:26:59;;;;;;;0.93;0.30;;;;;;;21.91;51.72;99497.50;10497005;28;20048;-72
2021/08/08 08:32:01;;;;;;;1.90;0.30;;;;;;;21.89;49.34;99491.44;10480580;28;20044;-72
2021/08/08 08:37:03;;;;;;;1.30;0.30;;;;;;;22.00;49.71;99501.19;10482245;28;20387;-70
2021/08/08 08:42:07;;;;;;;1.85;0.30;;;;;;;22.07;48.90;99505.88;10462292;28;20044;-70
2021/08/08 08:47:14;;;;;;;0.77;0.20;;;;;;;22.27;48.54;99522.91;10497548;28;20106;-72
2021/08/08 08:52:21;;;;;;;1.02;0.30;;;;;;;22.15;49.08;99527.50;10478485;28;20093;-70
2021/08/08 08:57:25;;;;;;;4.05;0.38;;;;;;;22.30;48.24;99525.31;10479948;28;20424;-71
2021/08/08 09:02:30;;;;;;;1.85;0.40;;;;;;;22.84;48.95;99534.75;10496305;28;20044;-70
2021/08/08 09:07:40;;;;;;;0.70;0.30;;;;;;;23.45;47.01;99533.63;10483953;22;20414;31
2021/08/08 09:12:43;;;;;;;1.70;0.30;;;;;;;24.00;45.47;99549.09;10383288;28;20049;-70
2021/08/08 09:17:44;;;;;;;1.25;0.40;;;;;;;23.15;45.54;99559.63;10422271;28;20033;-70
2021/08/08 09:22:56;;;;;;;1.05;0.35;;;;;;;22.75;46.11;99564.19;10419514;28;20049;-70
2021/08/08 09:28:10;;;;;;;0.40;0.20;;;;;;;22.56;44.92;99567.66;10435839;28;20049;-71
2021/08/08 09:33:14;;;;;;;0.68;0.30;;;;;;;23.05;46.29;99568.66;10455669;28;20053;-71
2021/08/08 09:38:15;;;;;;;2.88;0.30;;;;;;;23.22;44.94;99572.47;10406393;28;20415;-70
2021/08/08 09:43:25;;;;;;;1.77;0.40;;;;;;;23.43;43.98;99570.50;10414867;28;20128;-69
2021/08/08 09:48:38;;;;;;;0.77;0.20;;;;;;;23.75;43.42;99582.78;10416781;28;20048;-70
2021/08/08 09:53:39;;;;;;;0.82;0.10;;;;;;;23.98;43.67;99581.44;10436072;28;20044;-70
2021/08/08 09:58:42;;;;;;;0.40;0.22;;;;;;;23.84;43.46;99577.38;10447538;28;20037;-71
2021/08/08 10:03:44;;;;;;;0.45;0.20;;;;;;;24.10;44.88;99592.88;10416447;28;20088;-71
2021/08/08 10:08:47;;;;;;;1.08;0.30;;;;;;;24.35;43.63;99597.59;10415166;28;20045;-70
2021/08/08 10:13:56;;;;;;;2.97;0.38;;;;;;;23.94;44.89;99595.31;10412870;28;20045;-70
2021/08/08 10:19:01;;;;;;;0.20;0.20;;;;;;;24.09;43.06;99601.91;10396322;28;20045;-72
2021/08/08 10:24:06;;;;;;;0.33;0.30;;;;;;;24.61;43.98;99613.03;10413391;28;20132;-70
2021/08/08 10:29:08;;;;;;;0.95;0.50;;;;;;;24.45;42.59;99620.91;10412853;28;20517;-71
2021/08/08 10:34:09;;;;;;;0.98;0.40;;;;;;;23.76;41.84;99603.25;10411834;28;20494;-72
2021/08/08 10:39:16;;;;;;;1.30;0.22;;;;;;;24.26;42.39;99613.72;10409774;28;20045;-70
2021/08/08 10:44:20;;;;;;;0.55;0.40;;;;;;;25.13;41.05;99603.44;10413208;28;20069;-70
2021/08/08 10:49:30;;;;;;;0.70;0.40;;;;;;;25.63;38.99;99612.78;10413104;28;20478;-70
2021/08/08 10:54:41;;;;;;;0.82;0.30;;;;;;;26.38;39.40;99614.00;10412768;28;20095;-70
2021/08/08 10:59:48;;;;;;;0.75;0.25;;;;;;;26.34;37.95;99614.50;10395908;28;20052;-70
2021/08/08 11:04:50;;;;;;;1.88;0.60;;;;;;;26.12;37.68;99613.22;10412648;28;20046;-69
2021/08/08 11:09:52;;;;;;;1.17;0.30;;;;;;;25.86;37.53;99605.97;10413187;28;20049;-72
2021/08/08 11:14:53;;;;;;;1.60;0.40;;;;;;;26.23;37.70;99607.53;10413430;28;20056;-70
2021/08/08 11:19:55;;;;;;;0.35;0.13;;;;;;;25.52;40.92;99600.44;10411758;28;20434;-76
2021/08/08 11:24:59;;;;;;;1.20;0.40;;;;;;;26.41;40.10;99600.22;10379536;28;20148;-76
2021/08/08 11:30:06;;;;;;;1.27;0.30;;;;;;;26.22;39.45;99596.94;10397277;28;20108;-73
2021/08/08 11:35:14;;;;;;;1.55;0.40;;;;;;;26.47;37.67;99600.63;10414798;28;20069;-74
2021/08/08 11:40:24;;;;;;;1.20;0.22;;;;;;;26.50;36.66;99598.44;10414513;28;20056;-73
2021/08/08 11:45:47;;;;;;;1.65;0.43;;;;;;;26.13;36.46;99594.19;10413910;28;20049;-73
2021/08/08 11:51:03;;;;;;;0.47;0.22;;;;;;;26.22;38.44;99610.41;10397141;28;20045;-75
2021/08/08 11:56:28;;;;;;;0.77;0.40;;;;;;;25.57;38.76;99622.34;10418206;28;20046;-74
2021/08/08 12:01:30;;;;;;;0.82;0.20;;;;;;;25.78;37.19;99613.13;10403392;28;20468;-73
2021/08/08 12:06:32;;;;;;;1.00;0.45;;;;;;;25.26;37.79;99618.34;10404689;28;20045;-74
2021/08/08 12:11:51;;;;;;;1.08;0.32;;;;;;;24.72;38.80;99617.38;10420017;28;20099;-74
2021/08/08 12:16:59;;;;;;;3.80;0.50;;;;;;;24.84;40.26;99605.44;10404745;28;20046;-74
2021/08/08 12:22:16;;;;;;;0.95;0.38;;;;;;;24.34;38.75;99617.34;10404068;28;20053;-73
2021/08/08 12:27:36;;;;;;;1.35;0.45;;;;;;;24.35;40.76;99621.75;10420133;28;20119;-73
2021/08/08 12:32:39;;;;;;;0.63;0.28;;;;;;;24.75;39.05;99619.78;10405582;28;20104;-74
2021/08/08 12:37:43;;;;;;;0.38;0.30;;;;;;;24.92;39.72;99621.66;10423798;28;20044;-74
2021/08/08 12:42:45;;;;;;;0.50;0.30;;;;;;;25.13;39.28;99622.25;10425601;28;20057;-75
2021/08/08 12:47:59;;;;;;;1.38;0.30;;;;;;;25.51;37.45;99639.13;10424711;28;20482;-74
2021/08/08 12:53:02;;;;;;;1.20;0.28;;;;;;;25.90;37.75;99636.97;10407340;28;20050;-74
2021/08/08 12:58:04;;;;;;;1.85;0.30;;;;;;;25.48;37.62;99636.72;10422271;28;20067;-74
2021/08/08 13:03:06;;;;;;;0.88;0.32;;;;;;;25.46;38.50;99641.44;10404157;28;20045;-73
2021/08/08 13:08:08;;;;;;;1.00;0.47;;;;;;;25.38;38.51;99644.03;10405051;28;20077;-75
2021/08/08 13:13:10;;;;;;;1.30;0.40;;;;;;;25.80;38.26;99644.25;10425718;28;20064;-74
2021/08/08 13:18:12;;;;;;;1.20;0.30;;;;;;;25.78;37.09;99650.81;10423435;28;20041;-75
2021/08/08 13:23:15;;;;;;;1.90;0.40;;;;;;;25.70;39.41;99654.25;10407165;28;20108;-74
2021/08/08 13:28:17;;;;;;;0.60;0.30;;;;;;;26.10;36.90;99645.69;10425173;28;20033;-74
2021/08/08 13:33:18;;;;;;;0.45;0.40;;;;;;;26.15;36.47;99647.91;10423437;28;20046;-74
2021/08/08 13:38:21;;;;;;;1.00;0.40;;;;;;;25.91;37.74;99651.28;10424025;28;20042;-74
2021/08/08 13:43:23;;;;;;;0.93;0.43;;;;;;;25.31;38.04;99653.69;10403612;28;20100;-74
2021/08/08 13:48:25;;;;;;;0.90;0.40;;;;;;;24.72;39.89;99660.41;10423634;28;20045;-73
2021/08/08 13:53:28;;;;;;;0.35;0.20;;;;;;;24.43;40.48;99666.72;10409284;28;20049;-73
2021/08/08 13:58:30;;;;;;;1.38;0.40;;;;;;;24.36;38.77;99668.28;10406561;28;20091;-73
2021/08/08 14:03:32;;;;;;;1.25;0.35;;;;;;;24.11;40.40;99667.06;10403733;28;20041;-73
2021/08/08 14:08:34;;;;;;;0.93;0.52;;;;;;;23.98;39.82;99672.72;10418078;28;20050;-73
2021/08/08 14:13:36;;;;;;;1.98;0.32;;;;;;;24.21;39.53;99677.75;10418782;28;20156;-73
2021/08/08 14:18:38;;;;;;;0.80;0.45;;;;;;;24.44;38.82;99673.81;10418105;28;20041;-74
2021/08/08 14:23:40;;;;;;;3.20;0.30;;;;;;;24.67;36.90;99672.44;10398616;28;20045;-74
2021/08/08 14:28:42;;;;;;;2.13;0.60;;;;;;;24.66;38.24;99683.34;10415872;28;20458;-72
2021/08/08 14:33:44;;;;;;;1.50;0.50;;;;;;;24.53;37.91;99693.56;10399172;28;20065;-73
2021/08/08 14:38:45;;;;;;;1.75;0.47;;;;;;;24.53;37.19;99682.81;10418878;28;20056;-74
2021/08/08 14:43:47;;;;;;;0.75;0.30;;;;;;;24.63;37.38;99680.94;10400174;28;20398;-73
2021/08/08 14:48:49;;;;;;;2.65;0.30;;;;;;;24.52;37.01;99684.63;10399017;28;20045;-73
2021/08/08 14:53:50;;;;;;;1.17;0.50;;;;;;;24.60;37.78;99687.44;10419205;28;20042;-72
2021/08/08 14:58:52;;;;;;;0.25;0.22;;;;;;;24.49;36.82;99678.72;10399060;28;20456;-72
2021/08/08 15:03:54;;;;;;;1.17;0.40;;;;;;;24.16;37.23;99681.72;10417965;28;20113;-73
2021/08/08 15:08:55;;;;;;;1.58;0.40;;;;;;;24.16;38.47;99689.78;10432812;22;20124;-70
2021/08/08 15:13:57;;;;;;;1.02;0.40;;;;;;;23.75;38.96;99690.97;10489116;28;20093;-70
2021/08/08 15:18:59;;;;;;;0.40;0.30;;;;;;;24.05;39.00;99698.00;10489377;28;20135;-71
2021/08/08 15:24:00;;;;;;;1.70;0.50;;;;;;;24.26;39.37;99715.78;10490556;28;20430;-71
2021/08/08 15:29:02;;;;;;;1.85;0.40;;;;;;;24.44;39.76;99718.59;10492973;28;20138;-71
2021/08/08 15:34:04;;;;;;;2.75;0.85;;;;;;;24.25;40.09;99724.81;10498395;28;20136;-70
2021/08/08 15:39:06;;;;;;;3.97;3.53;;;;;;;24.22;40.59;99730.50;10479962;28;20417;-70
2021/08/08 15:44:07;;;;;;;2.08;0.52;;;;;;;23.98;40.25;99717.50;10498407;28;20044;-71
2021/08/08 15:49:09;;;;;;;1.60;0.40;;;;;;;24.00;39.19;99729.81;10498228;28;20085;-70
2021/08/08 15:54:11;;;;;;;1.70;0.60;;;;;;;23.84;38.59;99734.91;10481294;28;20064;-70
2021/08/08 15:59:13;;;;;;;0.40;0.35;;;;;;;24.17;37.92;99745.22;10497792;28;20139;-70
2021/08/08 16:04:14;;;;;;;1.05;0.40;;;;;;;23.94;38.08;99738.41;10498979;28;20048;-72
2021/08/08 16:09:16;;;;;;;0.75;0.40;;;;;;;23.90;39.85;99726.25;10497003;28;20122;-71
2021/08/08 16:14:18;;;;;;;1.85;0.93;;;;;;;24.02;39.30;99730.50;10497141;28;20095;-71
2021/08/08 16:19:19;;;;;;;1.27;0.40;;;;;;;24.24;39.69;99732.03;10496746;28;20434;-71
2021/08/08 16:24:21;;;;;;;2.40;0.40;;;;;;;24.31;39.10;99735.03;10478417;28;20099;-71
2021/08/08 16:29:23;;;;;;;1.10;0.40;;;;;;;24.16;40.16;99745.34;10496451;28;20041;-72
2021/08/08 16:34:24;;;;;;;0.50;0.40;;;;;;;24.16;39.04;99748.03;10495965;28;20083;-72
2021/08/08 16:39:26;;;;;;;0.95;0.50;;;;;;;24.13;39.12;99745.66;10496610;28;20389;-74
2021/08/08 16:44:28;;;;;;;1.00;0.32;;;;;;;23.96;39.40;99741.81;10495749;28;20451;-72
2021/08/08 16:49:30;;;;;;;2.88;0.60;;;;;;;23.90;39.71;99745.06;10495469;28;20383;-74
2021/08/08 16:54:32;;;;;;;1.10;0.50;;;;;;;23.80;39.12;99745.06;10494719;28;20053;-71
2021/08/08 16:59:34;;;;;;;0.98;0.47;;;;;;;23.55;40.31;99738.38;10494483;28;20041;-70
2021/08/08 17:04:51;;;;;;;1.05;0.70;;;;;;;23.40;40.63;99735.22;10496265;28;20044;-71
2021/08/08 17:09:53;;;;;;;0.85;0.40;;;;;;;23.33;40.22;99733.22;10496666;28;20543;-70
2021/08/08 17:14:56;;;;;;;1.92;0.60;;;;;;;23.29;41.36;99732.69;10496902;28;20048;-71
2021/08/08 17:19:59;;;;;;;1.95;0.50;;;;;;;23.32;41.09;99728.84;10496732;28;20122;-70
2021/08/08 17:25:04;;;;;;;2.15;0.60;;;;;;;23.29;41.53;99734.50;10495761;28;20067;-71
2021/08/08 17:30:07;;;;;;;0.67;0.50;;;;;;;23.09;41.48;99745.16;10497664;28;20448;-70
2021/08/08 17:35:09;;;;;;;1.42;0.52;;;;;;;23.12;41.54;99755.63;10496970;28;20048;-71
2021/08/08 17:40:11;;;;;;;1.95;0.80;;;;;;;22.98;42.05;99765.88;10496543;28;20044;-70
2021/08/08 17:45:13;;;;;;;1.48;0.60;;;;;;;22.84;42.61;99767.03;10496503;28;20102;-70
2021/08/08 17:50:16;;;;;;;1.75;0.63;;;;;;;22.51;43.41;99774.31;10478473;28;20055;-71
2021/08/08 17:55:18;;;;;;;1.60;0.50;;;;;;;22.54;43.60;99787.47;10475986;28;20068;-71
2021/08/08 18:00:20;;;;;;;0.93;0.60;;;;;;;22.13;44.74;99797.16;10475469;28;20102;-72
2021/08/08 18:05:21;;;;;;;0.95;0.57;;;;;;;22.11;45.18;99799.06;10495038;28;20108;-71
2021/08/08 18:10:23;;;;;;;1.80;0.70;;;;;;;21.85;45.59;99819.13;10494014;28;20253;-71
2021/08/08 18:15:25;;;;;;;1.33;0.60;;;;;;;21.62;45.83;99834.38;10492467;28;20048;-71
2021/08/08 18:20:26;;;;;;;1.90;0.60;;;;;;;21.52;45.85;99847.66;10492792;28;20040;-72
2021/08/08 18:25:28;;;;;;;1.50;0.73;;;;;;;21.34;46.95;99859.81;10492928;28;20382;-71
2021/08/08 18:30:30;;;;;;;0.68;0.60;;;;;;;21.15;48.46;99860.34;10492711;28;20118;-71
2021/08/08 18:35:31;;;;;;;1.23;0.50;;;;;;;21.07;47.90;99866.31;10493768;28;20059;-71
2021/08/08 18:40:33;;;;;;;2.08;0.70;;;;;;;20.95;48.65;99877.13;10491806;28;20141;-71
2021/08/08 18:45:34;;;;;;;1.40;1.00;;;;;;;20.90;48.93;99886.31;10490817;28;20056;-71
2021/08/08 18:50:36;;;;;;;2.40;1.30;;;;;;;20.73;49.75;99889.44;10490973;28;20119;-72
2021/08/08 18:55:38;;;;;;;1.45;1.17;;;;;;;20.84;49.63;99894.78;10464816;28;20147;-72
2021/08/08 19:00:39;;;;;;;1.20;0.70;;;;;;;20.60;49.80;99891.34;10480447;28;20147;-72
2021/08/08 19:05:41;;;;;;;2.22;0.70;;;;;;;20.51;50.20;99890.22;10455468;28;20127;-72
2021/08/08 19:10:43;;;;;;;1.42;0.77;;;;;;;20.31;51.39;99897.00;10480906;28;20045;-72
2021/08/08 19:15:45;;;;;;;1.38;0.60;;;;;;;20.23;50.55;99903.88;10500119;28;20098;-71
2021/08/08 19:20:46;;;;;;;1.45;0.98;;;;;;;20.32;50.75;99914.75;10499178;28;20388;-72
2021/08/08 19:25:48;;;;;;;0.82;0.50;;;;;;;20.23;50.80;99918.09;10474538;28;20041;-71
2021/08/08 19:30:50;;;;;;;3.17;0.60;;;;;;;20.23;50.26;99926.09;10463846;28;20037;-72
2021/08/08 19:35:52;;;;;;;2.08;0.88;;;;;;;20.20;50.82;99933.47;10499164;28;20044;-72
2021/08/08 19:40:54;;;;;;;1.63;0.55;;;;;;;20.06;51.35;99942.47;10480225;28;20056;-71
2021/08/08 19:45:56;;;;;;;2.70;0.93;;;;;;;20.21;50.48;99944.03;10497627;28;20060;-71
2021/08/08 19:50:59;;;;;;;1.15;0.70;;;;;;;20.11;50.43;99959.00;10498275;28;20348;-71
2021/08/08 19:56:01;;;;;;;1.67;0.80;;;;;;;20.22;50.54;99974.22;10497899;28;20064;-71
2021/08/08 20:01:03;;;;;;;0.80;0.60;;;;;;;20.14;50.60;99983.66;10478822;28;20087;-73
2021/08/08 20:06:05;;;;;;;1.35;0.80;;;;;;;20.12;50.57;100004.25;10496800;28;20075;-72
2021/08/08 20:11:07;;;;;;;1.10;0.57;;;;;;;20.03;50.61;100039.59;10497344;28;20411;-71
2021/08/08 20:16:09;;;;;;;1.58;0.63;;;;;;;19.83;51.18;100053.47;10496586;28;20082;-71
2021/08/08 20:21:11;;;;;;;3.40;0.70;;;;;;;19.56;50.23;100069.53;10496848;28;20045;-71
2021/08/08 20:26:13;;;;;;;8.63;0.80;;;;;;;19.26;49.44;100091.16;10496596;28;20064;-72
2021/08/08 20:31:14;;;;;;;1.25;0.77;;;;;;;18.93;50.72;100097.75;10496196;28;20052;-71
2021/08/08 20:36:16;;;;;;;2.53;0.93;;;;;;;19.02;50.07;100109.59;10496330;28;20123;-73
2021/08/08 20:41:18;;;;;;;2.03;0.70;;;;;;;18.80;51.44;100104.81;10495670;28;20087;-71
2021/08/08 20:46:19;;;;;;;1.92;0.80;;;;;;;18.83;51.12;100115.28;10495686;28;20055;-71
2021/08/08 20:51:21;;;;;;;1.98;0.65;;;;;;;18.79;50.84;100116.44;10495354;28;20123;-71
2021/08/08 20:56:22;;;;;;;2.10;0.90;;;;;;;18.65;51.96;100114.63;10495414;28;20052;-71
2021/08/08 21:01:24;;;;;;;2.15;0.70;;;;;;;18.45;52.49;100115.88;10494983;28;20098;-71
2021/08/08 21:06:26;;;;;;;1.50;0.50;;;;;;;18.37;51.20;100111.06;10495446;28;20106;-71
2021/08/08 21:11:30;;;;;;;1.35;0.68;;;;;;;18.22;51.29;100116.47;10490476;23;20056;-71
2021/08/08 21:16:42;;;;;;;1.23;0.57;;;;;;;17.98;52.32;100119.69;10482533;28;20049;-71
2021/08/08 21:21:46;;;;;;;1.13;0.60;;;;;;;17.98;52.03;100134.81;10488263;28;20370;-71
2021/08/08 21:26:49;;;;;;;1.60;0.80;;;;;;;17.86;52.92;100126.59;10470823;28;20139;-70
2021/08/08 21:31:51;;;;;;;1.95;0.60;;;;;;;17.76;53.32;100133.44;10498238;28;20052;-71
2021/08/08 21:36:52;;;;;;;1.15;0.70;;;;;;;17.60;54.30;100133.44;10498712;28;20041;-70
2021/08/08 21:41:54;;;;;;;1.23;0.70;;;;;;;17.51;54.96;100144.63;10481414;28;20123;-70
2021/08/08 21:46:55;;;;;;;3.90;0.80;;;;;;;17.42;55.47;100139.00;10481128;28;20197;-71
2021/08/08 21:51:57;;;;;;;1.38;0.70;;;;;;;17.17;56.41;100142.19;10498907;28;20450;-70
2021/08/08 21:56:59;;;;;;;2.08;0.80;;;;;;;17.04;57.47;100147.34;10479999;28;20397;-70
2021/08/08 22:02:00;;;;;;;1.40;0.88;;;;;;;16.80;59.86;100145.16;10497759;28;20049;-70
2021/08/08 22:07:02;;;;;;;2.97;0.88;;;;;;;16.65;61.35;100149.47;10497437;28;20037;-70
2021/08/08 22:12:04;;;;;;;1.92;0.80;;;;;;;16.63;61.90;100166.41;10498153;28;20366;-71
2021/08/08 22:17:06;;;;;;;2.28;0.77;;;;;;;16.53;61.89;100168.72;10480097;28;20052;-70
2021/08/08 22:22:08;;;;;;;2.05;0.90;;;;;;;16.54;62.00;100166.91;10496869;28;20489;-71
2021/08/08 22:27:09;;;;;;;1.75;0.90;;;;;;;16.38;63.04;100180.16;10478008;28;20079;-70
2021/08/08 22:32:11;;;;;;;1.13;0.90;;;;;;;16.31;63.32;100181.44;10497305;28;20479;-70
2021/08/08 22:37:13;;;;;;;1.08;0.88;;;;;;;16.30;63.36;100179.72;10499153;28;20037;-71
2021/08/08 22:42:15;;;;;;;2.10;0.85;;;;;;;16.19;63.61;100190.88;10495958;28;20053;-71
2021/08/08 22:47:17;;;;;;;1.33;0.70;;;;;;;16.18;64.01;100183.88;10480310;28;20049;-71
2021/08/08 22:52:18;;;;;;;2.40;0.80;;;;;;;16.25;63.37;100195.03;10498300;28;20151;-70
2021/08/08 22:57:20;;;;;;;2.42;0.90;;;;;;;16.11;63.73;100199.25;10497510;28;20132;-72
2021/08/08 23:02:22;;;;;;;1.75;0.80;;;;;;;16.00;64.04;100206.03;10478717;28;20060;-72
2021/08/08 23:07:24;;;;;;;1.92;0.80;;;;;;;15.96;63.77;100202.69;10496226;28;20043;-70
2021/08/08 23:12:26;;;;;;;2.60;0.80;;;;;;;15.88;63.61;100211.00;10478167;28;20090;-70
2021/08/08 23:17:28;;;;;;;1.45;0.70;;;;;;;15.98;61.84;100226.44;10496181;28;20041;-72
2021/08/08 23:22:30;;;;;;;1.63;0.73;;;;;;;15.98;61.31;100221.16;10480115;28;20041;-70
2021/08/08 23:27:31;;;;;;;1.50;0.70;;;;;;;15.94;61.02;100225.78;10495066;28;20044;-72